X  Fermer Données météorologiques d'aviation de Metar     KDNN Dalton Municipal Airport
Température
82°F Température
68°F Point de rosée
62% Humidité



Vent
3 MPH
5 KM/H
1 M/S
3 KTS



360°
N
Conditions actuelles

Clair Clair
Pression 1014.56 (hPa) - 29.96 (inHg)
Visibilité 10 (mile) - 16.1 (km)
Aéroport
Code de l'aéroport KDNN

Emplacement: Dalton Municipal Airport
Distance: 34 (mi)

Metar:
KDNN 130015Z AUTO 36003KT 10SM CLR 28/20 A2996 RMK AO2 T02750199

Temps: 06-12-2024 20:15 EDT